Latest Weather Observations for Kanagulk

IDV60801

Issued at 7:32 pm EST Monday 25 July 2016 (issued every 30 minutes, with the page automatically refreshed every 10 minutes)

About weather observations | Map of weather stations | Latest weather observations for VIC | Other Formats
Station Details ID: 079097 Name: KANAGULK Lat: -37.12 Lon: 141.80 Height: 188.8 m
Data from the previous 72 hours. | See also: Recent months at Kanagulk
Date/Time
EST
Temp
°C
App
Temp
°C
Dew
Point
°C
Rel
Hum
%
Delta-T
°C
Wind Press
QNH
hPa
Press
MSL
hPa
Rain since
9am
mm
Dir  Spd
km/h
Gust
km/h
Spd
kts
Gust
kts
25/07:30pm 7.7 3.4 3.2 73 1.9 W 15 26 8 14 1008.4 1008.7 6.2
25/07:00pm 8.0 2.9 2.9 70 2.2 W 19 32 10 17 1007.8 1008.0 6.2
25/06:30pm 8.3 3.2 4.3 76 1.8 W 20 33 11 18 1006.9 1007.2 6.2
25/06:00pm 8.5 4.0 6.3 86 1.0 WNW 19 30 10 16 1006.4 1006.7 6.2
25/05:30pm 8.3 4.4 7.2 93 0.5 WNW 17 26 9 14 1006.1 1006.4 6.2
25/05:00pm 8.3 4.5 7.7 96 0.3 WNW 17 30 9 16 1005.8 1006.1 6.2
25/04:30pm 8.4 4.4 8.3 99 0.0 WNW 19 35 10 19 1005.8 1006.1 6.2
25/04:00pm 8.5 3.6 8.4 99 0.0 WNW 24 39 13 21 1005.0 1005.3 5.6
25/03:47pm 9.3 4.2 9.2 99 0.0 NW 26 46 14 25 1005.3 1005.6 5.2
25/03:30pm 9.6 4.5 9.3 98 0.2 NW 26 44 14 24 1004.1 1004.4 2.0
25/03:02pm 10.2 4.4 9.4 95 0.4 NNW 30 50 16 27 1003.7 1004.0 0.2
25/03:00pm 10.1 4.3 9.3 95 0.4 NNW 30 46 16 25 1003.9 1004.2 0.2
25/02:30pm 10.0 3.8 9.2 95 0.4 NNW 32 54 17 29 1004.4 1004.7 0.2
25/02:00pm 11.2 5.4 8.1 81 1.5 NNW 28 46 15 25 1004.5 1004.8 0.0
25/01:49pm 11.3 5.6 8.2 81 1.5 NNW 28 46 15 25 1004.7 1005.0 0.0
25/01:30pm 10.7 6.8 9.5 92 0.6 NNW 20 35 11 19 1005.5 1005.8 0.0
25/01:00pm 9.8 5.5 9.3 97 0.3 NW 22 39 12 21 1006.7 1007.0 0.0
25/12:30pm 10.1 5.9 8.4 89 0.8 NNW 20 41 11 22 1007.3 1007.6 0.0
25/12:00pm 10.1 5.9 8.2 88 0.9 NW 20 30 11 16 1008.3 1008.6 0.0
25/11:30am 10.5 6.8 8.1 85 1.2 NNW 17 30 9 16 1009.0 1009.3 0.0
25/11:00am 9.9 5.7 7.5 85 1.2 NNW 19 30 10 16 1009.7 1010.0 0.0
25/10:30am 9.4 5.5 7.2 86 1.0 NNW 17 26 9 14 1009.6 1009.9 0.0
25/10:00am 9.1 5.7 7.7 91 0.7 NW 15 20 8 11 1010.0 1010.3 0.0
25/09:30am 7.8 5.2 7.7 99 0.0 NW 11 17 6 9 1010.2 1010.5 0.0
25/09:00am 7.0 4.6 6.9 99 0.0 NNW 9 15 5 8 1010.2 1010.5 3.4
25/08:30am 6.1 3.9 6.0 99 0.0 NNW 7 13 4 7 1010.4 1010.7 3.4
25/08:00am 5.6 3.3 5.5 99 0.0 NW 7 9 4 5 1010.2 1010.5 3.4
25/07:30am 5.9 3.2 5.8 99 0.0 NW 9 11 5 6 1010.2 1010.5 3.4
25/07:00am 6.7 4.2 6.6 99 0.0 NW 9 15 5 8 1010.0 1010.3 3.4
25/06:30am 7.0 5.0 6.9 99 0.0 WNW 7 11 4 6 1009.6 1009.9 3.4
25/06:00am 7.2 4.4 7.1 99 0.0 WNW 11 19 6 10 1009.6 1009.9 3.4
25/05:30am 7.2 4.4 7.1 99 0.0 W 11 20 6 11 1009.2 1009.5 3.2
25/05:00am 7.3 4.6 7.2 99 0.0 W 11 17 6 9 1008.6 1008.9 3.2
25/04:30am 7.3 4.2 7.2 99 0.0 W 13 24 7 13 1008.6 1008.9 3.2
25/04:00am 6.5 3.6 6.4 99 0.0 WNW 11 19 6 10 1008.1 1008.3 3.2
25/03:30am 6.2 3.2 6.1 99 0.0 WNW 11 19 6 10 1007.7 1007.9 3.2
25/03:00am 6.2 3.2 6.1 99 0.0 WNW 11 22 6 12 1007.5 1007.8 3.2
25/02:30am 5.7 2.2 5.6 99 0.0 NW 13 19 7 10 1007.3 1007.6 3.2
25/02:00am 4.8 1.9 4.7 99 0.0 WNW 9 17 5 9 1007.0 1007.3 3.2
25/01:30am 4.1 1.6 4.0 99 0.0 WNW 6 11 3 6 1006.7 1007.0 3.2
25/01:00am 4.6 1.3 4.5 99 0.0 NW 11 19 6 10 1006.2 1006.5 3.2
25/12:30am 4.6 1.7 4.5 99 0.0 NW 9 15 5 8 1006.2 1006.5 3.0
25/12:00am 4.2 1.2 4.1 99 0.0 NW 9 15 5 8 1006.2 1006.5 3.0
 
Date/Time
EST
Temp
°C
App
Temp
°C
Dew
Point
°C
Rel
Hum
%
Delta-T
°C
Wind Press
QNH
hPa
Press
MSL
hPa
Rain since
9am
mm
Dir  Spd
km/h
Gust
km/h
Spd
kts
Gust
kts
24/11:30pm 4.4 1.4 4.3 99 0.0 NW 9 13 5 7 1006.0 1006.3 3.0
24/11:00pm 4.5 1.6 4.4 99 0.0 NW 9 13 5 7 1005.5 1005.8 3.0
24/10:30pm 4.4 1.8 4.3 99 0.0 NNW 7 9 4 5 1005.5 1005.8 3.0
24/10:00pm 5.0 2.7 4.9 99 0.0 NW 6 9 3 5 1005.5 1005.8 3.0
24/09:30pm 5.5 2.7 5.2 98 0.1 NNW 9 15 5 8 1005.2 1005.5 3.0
24/09:00pm 5.8 3.4 5.4 97 0.2 NW 7 11 4 6 1004.9 1005.2 3.0
24/08:30pm 6.4 3.3 5.7 95 0.3 NW 11 20 6 11 1004.6 1004.9 3.0
24/08:00pm 6.2 3.6 5.9 98 0.1 NW 9 13 5 7 1004.4 1004.7 3.0
24/07:30pm 5.7 2.6 5.4 98 0.1 NNW 11 24 6 13 1004.1 1004.4 3.0
24/07:00pm 5.3 2.4 4.6 95 0.3 NNW 9 13 5 7 1003.9 1004.2 3.0
24/06:30pm 5.7 2.0 4.7 93 0.4 NNW 13 19 7 10 1003.6 1003.8 3.0
24/06:00pm 6.1 2.5 4.9 92 0.5 NW 13 19 7 10 1003.3 1003.5 3.0
24/05:30pm 6.7 2.5 5.5 92 0.5 NW 17 28 9 15 1003.0 1003.2 3.0
24/05:00pm 7.2 2.7 6.8 97 0.2 NW 20 37 11 20 1003.5 1003.7 3.0
24/04:30pm 7.1 2.6 6.8 98 0.1 NW 20 30 11 16 1003.4 1003.6 3.0
24/04:00pm 7.4 3.0 6.5 94 0.4 NW 19 32 10 17 1003.3 1003.5 2.8
24/03:30pm 7.9 2.6 6.7 92 0.6 NW 24 46 13 25 1003.2 1003.4 2.6
24/03:00pm 8.1 2.9 7.2 94 0.4 NNW 24 39 13 21 1003.1 1003.3 2.6
24/02:39pm 8.3 2.0 5.9 85 1.1 NNW 28 50 15 27 1003.3 1003.5 2.4
24/02:30pm 9.9 5.1 5.7 75 1.9 NNW 20 37 11 20 1003.0 1003.2 2.0
24/02:00pm 10.0 4.9 6.2 77 1.8 NNW 22 39 12 21 1003.4 1003.6 2.0
24/01:30pm 9.6 4.5 7.7 88 0.9 N 24 39 13 21 1004.0 1004.3 2.0
24/01:00pm 8.3 4.7 8.2 99 0.0 N 17 30 9 16 1005.0 1005.3 2.0
24/12:30pm 7.1 2.8 7.0 99 0.0 NNE 19 24 10 13 1006.0 1006.3 2.0
24/12:00pm 6.9 3.2 6.2 95 0.3 N 15 20 8 11 1006.8 1007.1 0.8
24/11:30am 7.0 2.2 5.8 92 0.5 N 20 28 11 15 1007.2 1007.5 0.2
24/11:00am 6.9 2.1 5.7 92 0.5 N 20 26 11 14 1007.7 1007.9 0.0
24/10:30am 6.3 1.5 5.6 95 0.3 N 20 28 11 15 1008.1 1008.3 0.0
24/10:00am 5.9 0.7 5.5 97 0.2 N 22 30 12 16 1008.6 1008.9 0.0
24/09:30am 5.6 0.8 5.5 99 0.0 N 20 28 11 15 1008.7 1009.0 0.0
24/09:00am 4.8 -0.2 4.7 99 0.0 N 20 30 11 16 1008.7 1009.0 0.2
24/08:30am 4.0 -0.9 3.9 99 0.0 N 19 24 10 13 1009.2 1009.5 0.2
24/08:00am 3.5 -1.2 3.4 99 0.0 NNE 17 20 9 11 1009.2 1009.5 0.2
24/07:30am 3.8 -0.8 3.7 99 0.0 N 17 24 9 13 1009.3 1009.6 0.2
24/07:00am 3.8 0.3 3.7 99 0.0 N 11 17 6 9 1009.4 1009.7 0.2
24/06:30am 4.4 0.7 4.3 99 0.0 N 13 19 7 10 1009.2 1009.5 0.2
24/06:00am 4.0 0.2 3.9 99 0.0 N 13 15 7 8 1009.5 1009.8 0.2
24/05:30am 4.1 1.1 4.0 99 0.0 N 9 17 5 9 1009.6 1009.9 0.2
24/05:00am 4.0 1.0 3.9 99 0.0 N 9 17 5 9 1010.0 1010.3 0.2
24/04:30am 4.4 1.1 4.3 99 0.0 N 11 17 6 9 1010.2 1010.5 0.2
24/04:00am 4.6 2.1 4.5 99 0.0 N 7 11 4 6 1010.8 1011.1 0.2
24/03:30am 4.4 1.8 4.3 99 0.0 NNW 7 9 4 5 1011.2 1011.5 0.2
24/03:00am 4.3 1.7 4.2 99 0.0 NNW 7 11 4 6 1011.7 1012.0 0.2
24/02:30am 4.1 1.5 4.0 99 0.0 NNW 7 9 4 5 1012.1 1012.4 0.2
24/02:00am 3.8 0.7 3.7 99 0.0 NNW 9 11 5 6 1012.4 1012.7 0.2
24/01:30am 2.6 -0.1 2.5 99 0.0 NNW 6 11 3 6 1012.3 1012.6 0.2
24/01:00am 2.0 -0.8 1.9 99 0.0 NNW 6 9 3 5 1012.5 1012.9 0.2
24/12:30am 2.2 -0.8 2.1 99 0.0 N 7 9 4 5 1012.7 1013.1 0.2
24/12:00am 2.8 -0.1 2.7 99 0.0 NNW 7 11 4 6 1013.0 1013.4 0.2
 
Date/Time
EST
Temp
°C
App
Temp
°C
Dew
Point
°C
Rel
Hum
%
Delta-T
°C
Wind Press
QNH
hPa
Press
MSL
hPa
Rain since
9am
mm
Dir  Spd
km/h
Gust
km/h
Spd
kts
Gust
kts
23/11:30pm 2.7 0.0 2.6 99 0.0 NNW 6 7 3 4 1013.3 1013.6 0.2
23/11:00pm 3.3 1.8 3.2 99 0.0 CALM 0 4 0 2 1013.5 1013.8 0.2
23/10:30pm 2.8 0.1 2.7 99 0.0 NW 6 9 3 5 1013.4 1013.7 0.2
23/10:00pm 3.2 1.7 3.1 99 0.0 CALM 0 0 0 0 1013.2 1013.5 0.2
23/09:30pm 3.8 1.1 3.7 99 0.0 NW 7 9 4 5 1013.4 1013.7 0.2
23/09:00pm 4.4 1.8 4.3 99 0.0 NW 7 11 4 6 1013.5 1013.8 0.2
23/08:30pm 4.4 2.3 4.0 97 0.2 NNW 4 9 2 5 1013.5 1013.8 0.2
23/08:00pm 5.1 2.6 4.5 96 0.3 NW 7 9 4 5 1013.6 1013.9 0.2
23/07:30pm 5.6 3.3 4.6 93 0.4 NW 6 11 3 6 1013.6 1013.9 0.2
23/07:00pm 5.5 3.0 3.5 87 0.8 WNW 6 9 3 5 1013.2 1013.5 0.2
23/06:30pm 6.9 3.5 4.2 83 1.2 WNW 11 17 6 9 1012.8 1013.2 0.2
23/06:00pm 7.2 4.5 3.6 78 1.6 WNW 7 11 4 6 1012.5 1012.9 0.2
23/05:30pm 8.0 4.5 3.3 72 2.0 W 11 22 6 12 1012.2 1012.5 0.2
23/05:00pm 9.0 5.9 3.8 70 2.3 WNW 9 19 5 10 1011.8 1012.1 0.2
23/04:30pm 8.8 5.6 2.8 66 2.6 W 9 17 5 9 1011.4 1011.7 0.2
23/04:00pm 9.3 5.8 3.5 67 2.5 W 11 20 6 11 1011.4 1011.7 0.2
23/03:30pm 8.5 4.6 3.6 71 2.1 W 13 24 7 13 1011.3 1011.6 0.2
23/03:00pm 7.5 1.9 3.4 75 1.8 SW 22 35 12 19 1011.0 1011.3 0.2
23/02:30pm 9.8 4.9 2.2 59 3.2 W 17 28 9 15 1010.5 1010.8 0.0
23/02:00pm 9.5 4.0 2.1 60 3.1 W 20 32 11 17 1010.4 1010.7 0.0
23/01:30pm 9.8 4.2 1.5 56 3.5 WSW 20 32 11 17 1010.3 1010.6 0.0
23/01:00pm 10.2 5.3 2.3 58 3.4 W 17 32 9 17 1010.2 1010.5 0.0
23/12:30pm 9.9 4.7 2.3 59 3.3 WSW 19 33 10 18 1010.3 1010.6 0.0
23/12:00pm 9.4 4.1 2.0 60 3.1 WSW 19 32 10 17 1010.2 1010.5 0.0
23/11:30am 9.1 3.7 2.2 62 2.9 WSW 20 35 11 19 1010.3 1010.6 0.0
23/11:00am 8.4 3.6 2.4 66 2.5 WSW 17 28 9 15 1010.2 1010.5 0.0
23/10:30am 8.0 3.6 2.5 68 2.3 WSW 15 28 8 15 1009.9 1010.2 0.0
23/10:00am 7.5 3.4 2.2 69 2.2 WSW 13 24 7 13 1009.6 1009.9 0.0
23/09:30am 6.7 2.9 1.8 71 2.0 W 11 24 6 13 1009.0 1009.3 0.0
23/09:00am 6.0 2.6 1.7 74 1.8 W 9 19 5 10 1008.7 1009.0 9.6
23/08:30am 4.9 1.8 1.6 79 1.3 W 7 15 4 8 1008.1 1008.3 9.6
23/08:00am 4.4 0.9 1.3 80 1.2 WSW 9 15 5 8 1007.5 1007.8 9.6
23/07:30am 4.9 0.9 2.6 85 0.9 WSW 13 20 7 11 1006.9 1007.2 9.6
23/07:00am 5.0 1.4 3.2 88 0.8 WSW 11 20 6 11 1006.3 1006.6 9.6
23/06:30am 5.6 1.7 3.6 87 0.8 WSW 13 19 7 10 1005.7 1006.0 9.6
23/06:00am 5.8 2.0 3.8 87 0.9 WSW 13 26 7 14 1004.9 1005.2 9.6
23/05:30am 6.1 1.6 4.4 89 0.7 WSW 17 28 9 15 1004.0 1004.3 9.6
23/05:00am 6.4 1.7 5.0 91 0.6 WSW 19 30 10 16 1003.5 1003.7 9.6
23/04:30am 6.6 2.5 6.0 96 0.3 WSW 17 30 9 16 1002.8 1003.0 9.6
23/04:00am 6.9 2.0 6.8 99 0.0 WSW 22 35 12 19 1001.9 1002.2 9.6
23/03:30am 6.6 2.9 6.5 99 0.0 WSW 15 30 8 16 1001.3 1001.6 9.6
23/03:00am 6.4 3.8 6.3 99 0.0 W 9 19 5 10 1000.8 1001.1 9.4
23/02:30am 6.9 3.3 6.8 99 0.0 WSW 15 24 8 13 1000.4 1000.7 9.4
23/02:00am 6.9 2.9 6.6 98 0.1 W 17 30 9 16 999.5 999.8 9.2
23/01:30am 7.2 2.7 6.1 93 0.5 W 19 33 10 18 998.2 998.4 9.2
23/01:00am 7.0 2.5 6.1 94 0.4 WNW 19 32 10 17 997.6 997.8 9.2
23/12:30am 6.8 3.5 6.4 97 0.2 WNW 13 24 7 13 997.6 997.8 9.2
23/12:00am 6.9 -0.3 5.7 92 0.5 W 33 56 18 30 997.3 997.5 9.0
 
Date/Time
EST
Temp
°C
App
Temp
°C
Dew
Point
°C
Rel
Hum
%
Delta-T
°C
Wind Press
QNH
hPa
Press
MSL
hPa
Rain since
9am
mm
Dir  Spd
km/h
Gust
km/h
Spd
kts
Gust
kts
22/11:56pm 7.2 0.9 5.8 91 0.6 WNW 28 50 15 27 997.4 997.6 8.6
22/11:30pm 7.3 2.7 5.4 88 0.9 WNW 19 37 10 20 996.4 996.7 8.0
22/11:00pm 7.4 2.6 5.4 87 0.9 WNW 20 32 11 17 996.2 996.5 8.0
22/10:30pm 7.4 3.0 4.9 84 1.1 WNW 17 32 9 17 996.0 996.3 8.0
22/10:00pm 7.6 2.2 6.4 92 0.6 WNW 24 39 13 21 995.6 995.9 8.0
22/09:49pm 8.2 2.9 6.7 90 0.7 WNW 24 56 13 30 996.0 996.3 7.8
22/09:30pm 8.7 4.0 7.8 94 0.4 NW 22 37 12 20 995.5 995.8 7.2
22/09:00pm 8.2 4.5 7.9 98 0.1 WNW 17 30 9 16 995.6 995.9 7.2
22/08:30pm 8.9 3.0 7.5 91 0.7 WNW 28 48 15 26 996.0 996.3 6.2
22/08:29pm 9.0 3.1 7.5 90 0.7 WNW 28 48 15 26 995.9 996.2 6.2
22/08:00pm 9.5 5.5 8.9 96 0.3 NW 20 39 11 21 995.6 995.9 5.4

Other Formats:

Comma delimited format used in spreadsheet applications
http://www.bom.gov.au/fwo/IDV60801/IDV60801.95827.axf

JavaScript Object Notation format (JSON) in row-major order
http://www.bom.gov.au/fwo/IDV60801/IDV60801.95827.json